map of ADU home
ADU - Airport
Location
City:  Ardabil, Azarbayjan-e Sharqi, Iran
ICAO:OITL
IATA:ADU

Details
Type:Airport (Aerodrome, Airfield)
Latitude:3819'32"N (38.325678)
Longitude:4825'28"E (48.424356)
Datum:WGS 1984
Elevation:4315 ft (1315 m)
Variation:5.67E (WMM2015 magnetic declination)
0.07 annual change
Runways:1
Longest:10823 × 148 ft (3299 × 45 m), paved

Time
Time Zone:UTC+3:30 (DST+4:30)
Local Time:

Weather
METAR:OITL 170800Z VRB02KT 9999 BKN030 SCT035CB 13/07 Q1027

Related Locations
Nearby:
Farthest:GMR: 11362 mi / 18286 km
Mangareva [Totegegie], Gambier Islands, PF

Find:

   beyond  
but within

Other Information
Maps:
NOTAMs:
Links:
Sources:

  
  • flag of Iran
  

Sectional Chart

Flight Planning
at skyvector.com

Satellite Image

Google Maps Satellite view

 

Copyright © 2004-2018 Karl L. Swartz. All rights reserved.
The Great Circle Mapper name and logo are trademarks of the Great Circle Mapper.
All other trademarks mentioned herein belong to their respective owners.
Please see credits for attibutions and further copyright information.

  Follow gcmap on Facebook Follow gcmap on Twitter Follow gcmap on Google+ GCmap on LinkedIn

hCard Microformat

Geo Microformat